createdAt,value
2022-08-19T00:01:53.461Z,45.90
2022-08-19T00:04:24.357Z,45.82
2022-08-19T00:06:53.071Z,45.54
2022-08-19T00:09:22.875Z,46.45
2022-08-19T00:11:51.319Z,46.25
2022-08-19T00:14:21.583Z,46.14
2022-08-19T00:16:52.447Z,46.26
2022-08-19T00:19:20.590Z,45.81
2022-08-19T00:21:48.887Z,47.13
2022-08-19T00:24:17.474Z,46.70
2022-08-19T00:26:47.489Z,46.53
2022-08-19T00:29:19.611Z,46.75
2022-08-19T00:31:48.648Z,47.06
2022-08-19T00:34:22.505Z,47.46
2022-08-19T00:36:51.276Z,47.11
2022-08-19T00:39:20.096Z,47.22
2022-08-19T00:41:49.909Z,46.85
2022-08-19T00:44:21.414Z,47.06
2022-08-19T00:46:58.391Z,47.67
2022-08-19T00:49:33.807Z,46.81
2022-08-19T00:52:06.724Z,47.64
2022-08-19T00:54:35.188Z,47.68
2022-08-19T00:57:04.159Z,47.84
2022-08-19T00:59:56.244Z,47.83
2022-08-19T01:02:20.594Z,47.58
2022-08-19T01:04:50.680Z,47.68
2022-08-19T01:07:19.859Z,47.73
2022-08-19T01:09:48.709Z,48.24
2022-08-19T01:12:18.091Z,48.38
2022-08-19T01:14:47.471Z,48.63
2022-08-19T01:17:17.252Z,48.77
2022-08-19T01:19:47.781Z,48.54
2022-08-19T01:22:30.233Z,49.04
2022-08-19T01:25:03.481Z,49.14
2022-08-19T01:27:43.313Z,49.04
2022-08-19T01:30:15.355Z,48.61
2022-08-19T01:32:44.354Z,48.55
2022-08-19T01:35:14.518Z,49.39
2022-08-19T01:37:52.893Z,48.80
2022-08-19T01:40:24.726Z,49.02
2022-08-19T01:42:54.391Z,48.91
2022-08-19T01:45:26.001Z,49.26
2022-08-19T01:48:02.132Z,49.29
2022-08-19T01:50:31.537Z,48.29
2022-08-19T01:53:03.594Z,48.58
2022-08-19T01:55:40.846Z,48.35
2022-08-19T01:58:16.070Z,48.30
2022-08-19T02:00:46.234Z,48.04
2022-08-19T02:03:14.838Z,47.97
2022-08-19T02:05:43.547Z,48.11
2022-08-19T02:08:13.083Z,48.07
2022-08-19T02:10:45.258Z,48.21
2022-08-19T02:13:15.091Z,47.96
2022-08-19T02:15:43.545Z,47.81
2022-08-19T02:18:12.030Z,47.99
2022-08-19T02:20:41.618Z,47.86
2022-08-19T02:23:13.471Z,47.81
2022-08-19T02:25:45.373Z,47.87
2022-08-19T02:28:17.933Z,48.02
2022-08-19T02:30:47.956Z,48.15
2022-08-19T02:33:16.268Z,48.31
2022-08-19T02:35:45.369Z,48.67
2022-08-19T02:38:28.958Z,48.44
2022-08-19T02:41:01.472Z,48.40
2022-08-19T02:43:33.687Z,48.92
2022-08-19T02:46:02.247Z,48.37
2022-08-19T02:48:31.105Z,49.01
2022-08-19T02:50:59.250Z,49.47
2022-08-19T02:53:30.081Z,49.37
2022-08-19T02:55:59.893Z,49.75
2022-08-19T02:58:28.791Z,49.63
2022-08-19T03:00:58.607Z,50.38
2022-08-19T03:03:27.075Z,50.56
2022-08-19T03:06:06.206Z,51.20
2022-08-19T03:08:34.376Z,51.56
2022-08-19T03:11:04.098Z,51.48
2022-08-19T03:13:32.232Z,51.55
2022-08-19T03:16:00.502Z,51.88
2022-08-19T03:18:28.590Z,52.43
2022-08-19T03:20:56.990Z,52.51
2022-08-19T03:23:26.005Z,52.67
2022-08-19T03:26:03.042Z,52.71
2022-08-19T03:28:47.744Z,53.05
2022-08-19T03:31:44.900Z,53.27
2022-08-19T03:34:13.403Z,53.47
2022-08-19T03:36:41.733Z,53.85
2022-08-19T03:39:10.483Z,53.85
2022-08-19T03:41:44.599Z,53.56
2022-08-19T03:44:17.807Z,53.75
2022-08-19T03:46:47.569Z,54.03
2022-08-19T03:49:15.845Z,54.03
2022-08-19T03:51:46.674Z,54.12
2022-08-19T03:54:17.026Z,53.84
2022-08-19T03:56:47.746Z,53.98
2022-08-19T03:59:20.915Z,54.07
2022-08-19T04:01:49.307Z,54.11
2022-08-19T04:04:17.406Z,54.04
2022-08-19T04:06:48.914Z,53.97
2022-08-19T04:09:17.800Z,54.05
2022-08-19T04:11:48.554Z,54.24
2022-08-19T04:14:20.605Z,54.20
2022-08-19T04:16:50.065Z,53.72
2022-08-19T04:19:20.772Z,53.10
2022-08-19T04:21:51.996Z,53.49
2022-08-19T04:24:21.543Z,53.51
2022-08-19T04:26:50.339Z,53.63
2022-08-19T04:29:25.886Z,54.06
2022-08-19T04:31:55.614Z,54.32
2022-08-19T04:34:26.406Z,54.15
2022-08-19T04:36:56.391Z,53.92
2022-08-19T04:39:47.249Z,54.00
2022-08-19T04:42:34.209Z,54.12
2022-08-19T04:45:05.380Z,54.58
2022-08-19T04:47:46.885Z,54.79
2022-08-19T04:50:19.619Z,54.58
2022-08-19T04:52:47.905Z,54.57
2022-08-19T04:55:16.107Z,54.21
2022-08-19T04:57:44.249Z,54.18
2022-08-19T05:00:14.792Z,53.40
2022-08-19T05:02:42.966Z,53.68
2022-08-19T05:05:11.146Z,53.31
2022-08-19T05:07:41.078Z,53.04
2022-08-19T05:10:09.679Z,52.93
2022-08-19T05:12:37.996Z,52.46
2022-08-19T05:15:09.591Z,51.98
2022-08-19T05:17:39.441Z,51.74
2022-08-19T05:20:27.375Z,51.85
2022-08-19T05:22:55.854Z,51.17
2022-08-19T05:25:26.607Z,50.83
2022-08-19T05:27:54.756Z,50.86
2022-08-19T05:30:33.501Z,50.54
2022-08-19T05:33:13.216Z,50.61
2022-08-19T05:35:42.086Z,50.77
2022-08-19T05:38:10.388Z,50.40
2022-08-19T05:40:39.259Z,50.41
2022-08-19T05:43:09.069Z,50.05
2022-08-19T05:45:43.092Z,50.28
2022-08-19T05:48:13.163Z,49.77
2022-08-19T05:50:42.560Z,49.80
2022-08-19T05:53:10.927Z,49.69
2022-08-19T05:55:40.695Z,49.89
2022-08-19T05:58:09.263Z,49.48
2022-08-19T06:00:37.571Z,48.63
2022-08-19T06:03:11.795Z,48.73
2022-08-19T06:05:50.391Z,48.24
2022-08-19T06:08:34.360Z,48.61
2022-08-19T06:11:18.167Z,47.84
2022-08-19T06:13:51.762Z,47.91
2022-08-19T06:16:23.237Z,47.69
2022-08-19T06:18:53.611Z,47.91
2022-08-19T06:21:25.175Z,47.61
2022-08-19T06:23:54.115Z,47.38
2022-08-19T06:26:23.339Z,47.63
2022-08-19T06:28:51.413Z,47.27
2022-08-19T06:31:21.979Z,46.87
2022-08-19T06:33:50.778Z,47.12
2022-08-19T06:36:21.364Z,46.46
2022-08-19T06:38:54.802Z,46.12
2022-08-19T06:41:23.059Z,46.15
2022-08-19T06:43:54.059Z,45.96
2022-08-19T06:46:24.626Z,45.71
2022-08-19T06:48:54.477Z,45.51
2022-08-19T06:51:25.098Z,44.99
2022-08-19T06:53:57.082Z,44.86
2022-08-19T06:56:32.000Z,44.81
2022-08-19T06:59:01.042Z,44.33
2022-08-19T07:01:29.269Z,44.27
2022-08-19T07:03:58.432Z,43.88
2022-08-19T07:06:43.760Z,43.97
2022-08-19T07:09:18.592Z,43.73
2022-08-19T07:11:51.160Z,43.34
2022-08-19T07:14:21.546Z,43.20
2022-08-19T07:16:52.463Z,42.64
2022-08-19T07:19:22.116Z,42.72
2022-08-19T07:21:53.810Z,42.57
2022-08-19T07:24:25.869Z,41.70
2022-08-19T07:26:55.770Z,41.74
2022-08-19T07:29:25.825Z,41.70
2022-08-19T07:32:00.227Z,41.41
2022-08-19T07:34:31.459Z,41.48
2022-08-19T07:37:01.977Z,40.94
2022-08-19T07:39:37.587Z,41.01
2022-08-19T07:42:08.969Z,41.30
2022-08-19T07:47:49.907Z,40.21
2022-08-19T07:49:59.464Z,40.14
2022-08-19T07:52:27.707Z,39.89
2022-08-19T07:54:57.234Z,39.14
2022-08-19T07:57:25.356Z,39.02
2022-08-19T07:59:53.501Z,38.75
2022-08-19T08:02:21.606Z,38.32
2022-08-19T08:05:07.094Z,38.39
2022-08-19T08:07:53.076Z,37.91
2022-08-19T08:10:24.259Z,37.63
2022-08-19T08:13:09.608Z,37.40
2022-08-19T08:15:42.981Z,37.03
2022-08-19T08:18:12.108Z,37.53
2022-08-19T08:20:41.087Z,36.36
2022-08-19T08:23:26.168Z,35.76
2022-08-19T08:25:58.025Z,34.90
2022-08-19T08:28:29.777Z,34.38
2022-08-19T08:30:59.795Z,34.77
2022-08-19T08:33:33.774Z,34.41
2022-08-19T08:36:04.235Z,33.91
2022-08-19T08:38:39.667Z,34.17
2022-08-19T08:41:29.156Z,33.90
2022-08-19T08:43:59.178Z,33.80
2022-08-19T08:46:34.126Z,32.71
2022-08-19T08:49:09.930Z,33.06
2022-08-19T08:51:44.078Z,33.06
2022-08-19T08:54:18.093Z,33.06
2022-08-19T08:56:51.638Z,33.51
2022-08-19T08:59:25.282Z,33.36
2022-08-19T09:01:53.551Z,33.46
2022-08-19T09:04:23.862Z,33.50
2022-08-19T09:07:00.765Z,33.34
2022-08-19T09:09:33.613Z,33.28
2022-08-19T09:12:11.826Z,32.95
2022-08-19T09:14:50.680Z,32.89
2022-08-19T09:17:20.689Z,33.15
2022-08-19T09:19:57.937Z,32.89
2022-08-19T09:22:27.776Z,32.89
2022-08-19T09:24:56.919Z,32.50
2022-08-19T09:27:43.165Z,32.49
2022-08-19T09:30:16.096Z,32.83
2022-08-19T09:32:45.621Z,32.59
2022-08-19T09:35:15.457Z,31.50
2022-08-19T09:37:44.457Z,31.40
2022-08-19T09:40:14.115Z,31.33
2022-08-19T09:42:49.959Z,31.53
2022-08-19T09:45:22.405Z,31.02
2022-08-19T09:47:53.865Z,30.69
2022-08-19T09:50:24.337Z,30.66
2022-08-19T09:52:57.797Z,30.49
2022-08-19T09:55:31.920Z,29.62
2022-08-19T09:58:06.014Z,29.92
2022-08-19T10:00:34.463Z,29.95
2022-08-19T10:03:02.607Z,30.10
2022-08-19T10:05:48.921Z,29.82
2022-08-19T10:08:18.767Z,29.42
2022-08-19T10:10:50.332Z,29.98
2022-08-19T10:13:24.596Z,29.77
2022-08-19T10:15:54.281Z,29.64
2022-08-19T10:18:25.148Z,29.65
2022-08-19T10:20:55.994Z,29.40
2022-08-19T10:23:24.143Z,29.65
2022-08-19T10:25:54.609Z,29.11
2022-08-19T10:28:25.063Z,29.50
2022-08-19T10:30:54.286Z,29.47
2022-08-19T10:33:38.769Z,28.91
2022-08-19T10:36:16.058Z,28.68
2022-08-19T10:38:52.327Z,28.96
2022-08-19T10:41:26.283Z,28.28
2022-08-19T10:43:57.533Z,28.26
2022-08-19T10:46:33.613Z,28.33
2022-08-19T10:49:02.577Z,28.08
2022-08-19T10:51:48.741Z,28.18
2022-08-19T10:54:22.317Z,28.31
2022-08-19T10:56:59.356Z,27.83
2022-08-19T10:59:35.783Z,27.67
2022-08-19T11:02:06.804Z,27.69
2022-08-19T11:04:35.850Z,27.16
2022-08-19T11:07:04.822Z,27.42
2022-08-19T11:09:34.479Z,26.74
2022-08-19T11:12:05.052Z,26.60
2022-08-19T11:14:35.587Z,26.62
2022-08-19T11:17:05.069Z,26.43
2022-08-19T11:19:34.155Z,26.34
2022-08-19T11:22:04.421Z,26.34
2022-08-19T11:24:33.842Z,26.23
2022-08-19T11:27:07.623Z,25.78
2022-08-19T11:29:38.203Z,26.05
2022-08-19T11:32:07.670Z,25.27
2022-08-19T11:34:36.442Z,25.53
2022-08-19T11:37:06.717Z,25.41
2022-08-19T11:39:37.951Z,25.17
2022-08-19T11:42:28.109Z,24.90
2022-08-19T11:44:57.850Z,24.63
2022-08-19T11:47:27.300Z,24.74
2022-08-19T11:49:55.443Z,24.49
2022-08-19T11:52:23.585Z,24.17
2022-08-19T11:54:51.703Z,24.30
2022-08-19T11:57:20.757Z,23.68
2022-08-19T11:59:54.382Z,23.85
2022-08-19T12:02:24.380Z,24.11
2022-08-19T12:04:52.517Z,23.92
2022-08-19T12:07:20.590Z,23.95
2022-08-19T12:09:48.886Z,24.09
2022-08-19T12:12:17.188Z,24.00
2022-08-19T12:14:45.475Z,24.14
2022-08-19T12:17:14.373Z,23.36
2022-08-19T12:19:43.992Z,23.75
2022-08-19T12:22:12.160Z,23.32
2022-08-19T12:24:40.284Z,23.09
2022-08-19T12:27:12.543Z,23.00
2022-08-19T12:29:42.507Z,23.31
2022-08-19T12:32:12.090Z,23.20
2022-08-19T12:34:41.037Z,23.19
2022-08-19T12:37:11.993Z,23.37
2022-08-19T12:39:43.526Z,23.27
2022-08-19T12:42:12.559Z,23.10
2022-08-19T12:44:42.715Z,22.51
2022-08-19T12:47:13.264Z,22.66
2022-08-19T12:49:54.670Z,22.65
2022-08-19T12:52:28.104Z,22.74
2022-08-19T12:54:58.474Z,22.73
2022-08-19T12:57:32.950Z,22.55
2022-08-19T13:00:05.809Z,22.49
2022-08-19T13:02:38.245Z,23.10
2022-08-19T13:05:09.226Z,22.98
2022-08-19T13:07:39.562Z,22.86
2022-08-19T13:10:09.876Z,22.13
2022-08-19T13:12:38.324Z,22.10
2022-08-19T13:15:10.768Z,21.78
2022-08-19T13:17:40.907Z,20.77
2022-08-19T13:20:11.076Z,20.75
2022-08-19T13:22:40.859Z,20.54
2022-08-19T13:25:10.470Z,20.87
2022-08-19T13:27:39.488Z,20.77
2022-08-19T13:30:27.955Z,20.69
2022-08-19T13:33:15.953Z,20.94
2022-08-19T13:35:48.110Z,21.47
2022-08-19T13:38:21.477Z,21.68
2022-08-19T13:40:51.325Z,21.78
2022-08-19T13:43:22.928Z,22.01
2022-08-19T13:45:57.433Z,22.16
2022-08-19T13:48:28.012Z,21.78
2022-08-19T13:50:56.773Z,23.15
2022-08-19T13:53:26.364Z,24.52
2022-08-19T13:55:54.990Z,25.76
2022-08-19T13:58:23.707Z,26.70
2022-08-19T14:00:52.054Z,28.74
2022-08-19T14:03:20.288Z,29.59
2022-08-19T14:05:48.776Z,29.92
2022-08-19T14:08:16.915Z,30.96
2022-08-19T14:10:46.979Z,31.02
2022-08-19T14:13:17.429Z,30.98
2022-08-19T14:15:45.740Z,30.30
2022-08-19T14:18:14.044Z,30.47
2022-08-19T14:20:42.501Z,29.75
2022-08-19T14:23:11.740Z,29.46
2022-08-19T14:25:39.808Z,29.24
2022-08-19T14:28:09.572Z,30.44
2022-08-19T14:30:39.254Z,30.67
2022-08-19T14:33:09.385Z,30.58
2022-08-19T14:35:38.163Z,30.45
2022-08-19T14:38:07.558Z,30.94
2022-08-19T14:40:35.895Z,30.68
2022-08-19T14:43:06.488Z,31.26
2022-08-19T14:45:38.806Z,30.48
2022-08-19T14:48:17.823Z,30.04
2022-08-19T14:50:48.907Z,29.10
2022-08-19T14:53:18.317Z,29.71
2022-08-19T14:55:47.796Z,29.20
2022-08-19T14:58:29.755Z,29.31
2022-08-19T15:01:01.170Z,28.65
2022-08-19T15:03:30.265Z,28.50
2022-08-19T15:05:58.936Z,28.67
2022-08-19T15:08:28.863Z,28.24
2022-08-19T15:10:57.888Z,28.06
2022-08-19T15:13:27.215Z,28.04
2022-08-19T15:15:56.251Z,28.33
2022-08-19T15:18:26.154Z,28.29
2022-08-19T15:20:54.428Z,27.88
2022-08-19T15:23:23.432Z,28.16
2022-08-19T15:25:54.443Z,28.30
2022-08-19T15:28:22.804Z,28.44
2022-08-19T15:30:52.395Z,28.35
2022-08-19T15:33:21.219Z,28.59
2022-08-19T15:35:52.092Z,28.41
2022-08-19T15:38:22.382Z,28.54
2022-08-19T15:40:51.411Z,28.60
2022-08-19T15:43:21.801Z,28.73
2022-08-19T15:45:50.290Z,29.23
2022-08-19T15:48:18.498Z,29.37
2022-08-19T15:50:46.663Z,29.33
2022-08-19T15:53:16.196Z,28.97
2022-08-19T15:55:48.602Z,28.99
2022-08-19T15:58:34.643Z,29.08
2022-08-19T16:01:22.246Z,28.85
2022-08-19T16:04:14.732Z,28.67
2022-08-19T16:06:45.875Z,29.13
2022-08-19T16:09:17.313Z,29.12
2022-08-19T16:11:46.541Z,29.31
2022-08-19T16:14:15.435Z,29.13
2022-08-19T16:16:47.220Z,29.37
2022-08-19T16:19:17.261Z,29.00
2022-08-19T16:21:46.956Z,28.89
2022-08-19T16:24:19.009Z,29.38
2022-08-19T16:26:48.228Z,29.60
2022-08-19T16:29:22.033Z,29.68
2022-08-19T16:32:02.958Z,29.69
2022-08-19T16:34:31.573Z,29.72
2022-08-19T16:36:59.673Z,30.06
2022-08-19T16:39:29.203Z,30.55
2022-08-19T16:41:57.394Z,30.70
2022-08-19T16:44:29.891Z,31.23
2022-08-19T16:46:59.545Z,31.56
2022-08-19T16:49:53.779Z,31.94
2022-08-19T16:52:18.144Z,32.49
2022-08-19T16:54:48.606Z,33.18
2022-08-19T16:57:16.936Z,33.26
2022-08-19T16:59:48.975Z,33.53
2022-08-19T17:02:18.537Z,33.37
2022-08-19T17:04:57.639Z,34.02
2022-08-19T17:07:28.054Z,33.99
2022-08-19T17:09:58.409Z,34.13
2022-08-19T17:12:31.836Z,34.67
2022-08-19T17:15:01.190Z,35.25
2022-08-19T17:17:30.055Z,35.38
2022-08-19T17:19:59.098Z,35.47
2022-08-19T17:22:27.439Z,35.55
2022-08-19T17:24:58.337Z,35.71
2022-08-19T17:27:32.466Z,35.80
2022-08-19T17:30:02.592Z,35.73
2022-08-19T17:32:34.352Z,35.00
2022-08-19T17:35:04.747Z,34.88
2022-08-19T17:37:34.207Z,34.50
2022-08-19T17:40:05.421Z,35.00
2022-08-19T17:42:33.683Z,35.80
2022-08-19T17:45:02.365Z,36.50
2022-08-19T17:47:31.310Z,36.43
2022-08-19T17:49:59.503Z,36.29
2022-08-19T17:52:27.953Z,36.51
2022-08-19T17:54:56.452Z,36.71
2022-08-19T17:57:26.550Z,36.68
2022-08-19T17:59:55.420Z,36.77
2022-08-19T18:02:24.870Z,36.56
2022-08-19T18:04:53.612Z,36.29
2022-08-19T18:07:22.473Z,36.66
2022-08-19T18:09:52.842Z,36.49
2022-08-19T18:12:25.012Z,36.06
2022-08-19T18:14:54.744Z,40.16
2022-08-19T18:17:23.678Z,41.05
2022-08-19T18:19:51.779Z,38.51
2022-08-19T18:22:26.767Z,39.01
2022-08-19T18:24:55.324Z,39.35
2022-08-19T18:27:23.694Z,39.53
2022-08-19T18:29:51.977Z,40.31
2022-08-19T18:32:24.025Z,40.71
2022-08-19T18:34:53.229Z,42.66
2022-08-19T18:37:22.273Z,45.02
2022-08-19T18:40:07.739Z,45.97
2022-08-19T18:42:54.431Z,46.05
2022-08-19T18:45:43.574Z,46.42
2022-08-19T18:48:31.311Z,48.21
2022-08-19T18:51:01.482Z,50.50
2022-08-19T18:53:33.429Z,52.08
2022-08-19T18:56:01.622Z,55.28
2022-08-19T18:58:34.281Z,57.40
2022-08-19T19:01:11.155Z,58.32
2022-08-19T19:03:45.389Z,58.70
2022-08-19T19:06:14.346Z,59.87
2022-08-19T19:08:42.914Z,59.63
2022-08-19T19:11:11.099Z,58.51
2022-08-19T19:13:41.045Z,57.26
2022-08-19T19:16:11.630Z,59.84
2022-08-19T19:18:41.486Z,56.57
2022-08-19T19:21:10.366Z,57.34
2022-08-19T19:23:41.029Z,58.63
2022-08-19T19:26:10.573Z,60.43
2022-08-19T19:28:44.362Z,60.00
2022-08-19T19:31:15.037Z,60.66
2022-08-19T19:33:45.613Z,65.96
2022-08-19T19:36:14.117Z,70.66
2022-08-19T19:38:48.232Z,68.33
2022-08-19T19:41:19.787Z,75.28
2022-08-19T19:43:59.919Z,79.88
2022-08-19T19:46:42.438Z,74.76
2022-08-19T19:49:12.801Z,74.48
2022-08-19T19:51:41.422Z,75.81
2022-08-19T19:54:13.918Z,77.50
2022-08-19T19:56:43.400Z,73.19
2022-08-19T19:59:14.558Z,76.02
2022-08-19T20:01:46.889Z,76.40
2022-08-19T20:04:17.744Z,78.60
2022-08-19T20:06:47.121Z,75.80
2022-08-19T20:09:19.655Z,73.60
2022-08-19T20:11:53.466Z,72.08
2022-08-19T20:14:23.626Z,69.19
2022-08-19T20:16:53.847Z,72.42
2022-08-19T20:19:26.897Z,74.90
2022-08-19T20:21:57.521Z,78.02
2022-08-19T20:24:32.483Z,81.85
2022-08-19T20:27:00.927Z,82.73
2022-08-19T20:29:38.763Z,85.00
2022-08-19T20:32:09.048Z,83.85
2022-08-19T20:34:39.399Z,84.13
2022-08-19T20:37:10.581Z,89.48
2022-08-19T20:39:39.241Z,100.00
2022-08-19T20:42:07.626Z,100.00
2022-08-19T20:44:36.141Z,100.00
2022-08-19T20:47:04.434Z,100.00
2022-08-19T20:49:33.008Z,100.00
2022-08-19T20:52:03.803Z,100.00
2022-08-19T20:54:32.296Z,100.00
2022-08-19T20:57:00.715Z,100.00
2022-08-19T20:59:28.992Z,99.65
2022-08-19T21:01:57.591Z,100.00
2022-08-19T21:04:26.802Z,100.00
2022-08-19T21:06:57.130Z,100.00
2022-08-19T21:09:27.139Z,100.00
2022-08-19T21:11:55.261Z,100.00
2022-08-19T21:14:23.880Z,100.00
2022-08-19T21:16:52.087Z,100.00
2022-08-19T21:19:23.896Z,100.00
2022-08-19T21:21:52.585Z,100.00
2022-08-19T21:24:20.708Z,100.00
2022-08-19T21:26:51.422Z,100.00
2022-08-19T21:29:20.375Z,100.00
2022-08-19T21:31:49.040Z,100.00
2022-08-19T21:34:17.226Z,100.00
2022-08-19T21:36:45.577Z,100.00
2022-08-19T21:39:13.800Z,100.00
2022-08-19T21:41:43.689Z,100.00
2022-08-19T21:44:13.527Z,100.00
2022-08-19T21:46:41.784Z,100.00
2022-08-19T21:49:09.920Z,100.00
2022-08-19T21:51:38.468Z,100.00
2022-08-19T21:54:06.647Z,100.00
2022-08-19T21:56:35.114Z,100.00
2022-08-19T21:59:03.195Z,100.00
2022-08-19T22:01:32.765Z,100.00
2022-08-19T22:04:01.051Z,100.00
2022-08-19T22:06:29.211Z,100.00
2022-08-19T22:08:57.380Z,100.00
2022-08-19T22:11:26.426Z,100.00
2022-08-19T22:13:56.523Z,100.00
2022-08-19T22:16:25.621Z,100.00
2022-08-19T22:18:55.157Z,100.00
2022-08-19T22:21:29.386Z,100.00
2022-08-19T22:24:10.005Z,100.00
2022-08-19T22:26:38.143Z,100.00
2022-08-19T22:29:06.424Z,100.00
2022-08-19T22:31:34.551Z,100.00
2022-08-19T22:34:05.370Z,100.00
2022-08-19T22:36:34.170Z,100.00
2022-08-19T22:39:02.498Z,100.00
2022-08-19T22:41:33.372Z,100.00
2022-08-19T22:44:01.852Z,100.00
2022-08-19T22:46:30.013Z,100.00
2022-08-19T22:49:01.681Z,100.00
2022-08-19T22:51:48.800Z,100.00
2022-08-19T22:54:17.152Z,100.00
2022-08-19T22:56:45.345Z,100.00
2022-08-19T22:59:13.571Z,100.00
2022-08-19T23:01:42.173Z,100.00
2022-08-19T23:04:10.879Z,100.00
2022-08-19T23:06:42.180Z,100.00
2022-08-19T23:09:16.605Z,100.00
2022-08-19T23:11:45.696Z,100.00
2022-08-19T23:14:14.679Z,100.00
2022-08-19T23:16:50.417Z,100.00
2022-08-19T23:19:19.661Z,100.00
2022-08-19T23:21:49.741Z,100.00
2022-08-19T23:24:18.115Z,100.00
2022-08-19T23:27:00.195Z,100.00
2022-08-19T23:29:45.983Z,100.00
2022-08-19T23:32:16.274Z,100.00
2022-08-19T23:34:45.824Z,100.00
2022-08-19T23:37:16.533Z,100.00
2022-08-19T23:39:45.371Z,100.00
2022-08-19T23:42:13.730Z,100.00
2022-08-19T23:44:51.654Z,99.15
2022-08-19T23:47:21.355Z,96.89
2022-08-19T23:49:49.797Z,95.66
2022-08-19T23:52:19.557Z,94.04
2022-08-19T23:54:48.045Z,96.20
2022-08-19T23:57:16.407Z,100.00
2022-08-19T23:59:46.258Z,98.03
